sensor_id;sensor_type;location;lat;lon;timestamp;P1;durP1;ratioP1;P2;durP2;ratioP2
9288;SDS011;4683;50.864;12.086;2022-07-23T00:00:29;7.00;;;6.40;;
9288;SDS011;4683;50.864;12.086;2022-07-23T00:02:57;7.70;;;6.90;;
9288;SDS011;4683;50.864;12.086;2022-07-23T00:05:25;8.00;;;7.30;;
9288;SDS011;4683;50.864;12.086;2022-07-23T00:07:54;6.97;;;6.47;;
9288;SDS011;4683;50.864;12.086;2022-07-23T00:10:22;7.07;;;6.47;;
9288;SDS011;4683;50.864;12.086;2022-07-23T02:11:20;7.33;;;6.63;;
9288;SDS011;4683;50.864;12.086;2022-07-23T02:13:48;7.60;;;6.90;;
9288;SDS011;4683;50.864;12.086;2022-07-23T02:16:17;9.97;;;6.90;;
9288;SDS011;4683;50.864;12.086;2022-07-23T02:18:45;8.03;;;6.77;;
9288;SDS011;4683;50.864;12.086;2022-07-23T02:21:13;8.23;;;6.50;;
9288;SDS011;4683;50.864;12.086;2022-07-23T02:23:41;7.07;;;6.47;;
9288;SDS011;4683;50.864;12.086;2022-07-23T02:26:09;6.80;;;6.27;;
9288;SDS011;4683;50.864;12.086;2022-07-23T02:28:39;7.17;;;6.47;;
9288;SDS011;4683;50.864;12.086;2022-07-23T02:31:07;7.33;;;6.73;;
9288;SDS011;4683;50.864;12.086;2022-07-23T02:33:35;8.63;;;6.60;;
9288;SDS011;4683;50.864;12.086;2022-07-23T02:36:04;9.77;;;7.17;;
9288;SDS011;4683;50.864;12.086;2022-07-23T02:38:33;7.60;;;6.90;;
9288;SDS011;4683;50.864;12.086;2022-07-23T04:08:47;8.57;;;7.63;;
9288;SDS011;4683;50.864;12.086;2022-07-23T07:33:16;6.77;;;5.47;;
9288;SDS011;4683;50.864;12.086;2022-07-23T07:35:44;8.77;;;6.17;;
9288;SDS011;4683;50.864;12.086;2022-07-23T07:38:13;9.20;;;5.80;;
9288;SDS011;4683;50.864;12.086;2022-07-23T07:57:27;6.70;;;5.90;;
9288;SDS011;4683;50.864;12.086;2022-07-23T08:08:46;7.10;;;6.40;;
9288;SDS011;4683;50.864;12.086;2022-07-23T08:11:44;7.57;;;6.67;;
9288;SDS011;4683;50.864;12.086;2022-07-23T08:14:13;7.97;;;7.13;;
9288;SDS011;4683;50.864;12.086;2022-07-23T08:16:42;7.57;;;6.87;;
9288;SDS011;4683;50.864;12.086;2022-07-23T08:19:10;8.17;;;6.83;;
9288;SDS011;4683;50.864;12.086;2022-07-23T08:21:40;7.53;;;6.77;;
9288;SDS011;4683;50.864;12.086;2022-07-23T08:24:08;6.93;;;6.40;;
9288;SDS011;4683;50.864;12.086;2022-07-23T08:26:39;8.40;;;7.60;;
9288;SDS011;4683;50.864;12.086;2022-07-23T08:29:09;7.17;;;6.50;;
9288;SDS011;4683;50.864;12.086;2022-07-23T08:31:39;7.80;;;7.00;;
9288;SDS011;4683;50.864;12.086;2022-07-23T08:34:08;8.00;;;7.17;;
9288;SDS011;4683;50.864;12.086;2022-07-23T08:36:37;8.43;;;7.17;;
9288;SDS011;4683;50.864;12.086;2022-07-23T08:39:05;7.93;;;7.10;;
9288;SDS011;4683;50.864;12.086;2022-07-23T08:41:34;7.87;;;7.17;;
9288;SDS011;4683;50.864;12.086;2022-07-23T08:44:03;7.03;;;6.43;;
9288;SDS011;4683;50.864;12.086;2022-07-23T09:24:45;9.53;;;6.80;;
9288;SDS011;4683;50.864;12.086;2022-07-23T09:27:46;7.97;;;7.20;;
9288;SDS011;4683;50.864;12.086;2022-07-23T09:30:18;7.47;;;6.83;;
9288;SDS011;4683;50.864;12.086;2022-07-23T09:33:03;7.70;;;6.97;;
9288;SDS011;4683;50.864;12.086;2022-07-23T09:35:47;8.30;;;7.53;;
9288;SDS011;4683;50.864;12.086;2022-07-23T09:38:17;8.00;;;7.20;;
9288;SDS011;4683;50.864;12.086;2022-07-23T10:09:16;10.53;;;9.73;;
9288;SDS011;4683;50.864;12.086;2022-07-23T10:21:16;10.63;;;9.63;;
9288;SDS011;4683;50.864;12.086;2022-07-23T11:50:46;15.70;;;14.17;;
9288;SDS011;4683;50.864;12.086;2022-07-23T12:23:02;13.60;;;12.50;;
9288;SDS011;4683;50.864;12.086;2022-07-23T12:25:35;14.53;;;13.30;;
9288;SDS011;4683;50.864;12.086;2022-07-23T12:28:07;13.57;;;12.50;;
9288;SDS011;4683;50.864;12.086;2022-07-23T12:30:40;13.70;;;12.60;;
9288;SDS011;4683;50.864;12.086;2022-07-23T12:33:10;14.97;;;13.67;;
9288;SDS011;4683;50.864;12.086;2022-07-23T12:35:40;13.67;;;12.53;;
9288;SDS011;4683;50.864;12.086;2022-07-23T12:38:15;14.20;;;13.20;;
9288;SDS011;4683;50.864;12.086;2022-07-23T12:40:45;13.37;;;12.27;;
9288;SDS011;4683;50.864;12.086;2022-07-23T13:15:51;13.23;;;12.00;;
9288;SDS011;4683;50.864;12.086;2022-07-23T13:18:23;11.63;;;10.73;;
9288;SDS011;4683;50.864;12.086;2022-07-23T13:20:52;13.50;;;12.40;;
9288;SDS011;4683;50.864;12.086;2022-07-23T13:23:21;15.20;;;14.00;;
9288;SDS011;4683;50.864;12.086;2022-07-23T13:25:51;14.13;;;12.93;;
9288;SDS011;4683;50.864;12.086;2022-07-23T14:31:15;10.57;;;9.73;;
9288;SDS011;4683;50.864;12.086;2022-07-23T14:33:44;11.27;;;10.37;;
9288;SDS011;4683;50.864;12.086;2022-07-23T14:36:13;10.63;;;9.83;;
9288;SDS011;4683;50.864;12.086;2022-07-23T14:38:41;9.53;;;8.83;;
9288;SDS011;4683;50.864;12.086;2022-07-23T14:41:10;10.37;;;9.47;;
9288;SDS011;4683;50.864;12.086;2022-07-23T14:43:40;9.80;;;9.00;;
9288;SDS011;4683;50.864;12.086;2022-07-23T14:46:09;10.33;;;9.43;;
9288;SDS011;4683;50.864;12.086;2022-07-23T14:48:42;9.50;;;8.80;;
9288;SDS011;4683;50.864;12.086;2022-07-23T14:51:11;9.37;;;8.50;;
9288;SDS011;4683;50.864;12.086;2022-07-23T14:57:48;9.20;;;8.40;;
9288;SDS011;4683;50.864;12.086;2022-07-23T15:26:37;8.07;;;7.37;;
9288;SDS011;4683;50.864;12.086;2022-07-23T15:29:09;7.60;;;7.00;;
9288;SDS011;4683;50.864;12.086;2022-07-23T15:31:38;8.33;;;7.63;;
9288;SDS011;4683;50.864;12.086;2022-07-23T15:34:08;7.70;;;7.00;;
9288;SDS011;4683;50.864;12.086;2022-07-23T15:36:37;8.23;;;7.57;;
9288;SDS011;4683;50.864;12.086;2022-07-23T15:39:07;7.53;;;6.73;;
9288;SDS011;4683;50.864;12.086;2022-07-23T16:02:22;7.83;;;7.23;;
9288;SDS011;4683;50.864;12.086;2022-07-23T16:18:37;7.27;;;6.73;;
9288;SDS011;4683;50.864;12.086;2022-07-23T16:22:00;7.37;;;6.80;;
9288;SDS011;4683;50.864;12.086;2022-07-23T16:29:17;7.13;;;6.53;;
9288;SDS011;4683;50.864;12.086;2022-07-23T16:32:25;7.47;;;6.87;;
9288;SDS011;4683;50.864;12.086;2022-07-23T16:46:49;6.30;;;5.80;;
9288;SDS011;4683;50.864;12.086;2022-07-23T16:49:34;6.10;;;5.70;;
9288;SDS011;4683;50.864;12.086;2022-07-23T16:52:24;6.50;;;5.90;;
9288;SDS011;4683;50.864;12.086;2022-07-23T16:56:19;5.93;;;5.43;;
9288;SDS011;4683;50.864;12.086;2022-07-23T17:08:04;6.20;;;5.70;;
9288;SDS011;4683;50.864;12.086;2022-07-23T17:10:33;6.60;;;6.10;;
9288;SDS011;4683;50.864;12.086;2022-07-23T17:13:02;6.97;;;6.40;;
9288;SDS011;4683;50.864;12.086;2022-07-23T17:15:31;6.57;;;6.07;;
9288;SDS011;4683;50.864;12.086;2022-07-23T17:18:02;6.43;;;6.03;;
9288;SDS011;4683;50.864;12.086;2022-07-23T17:20:32;7.23;;;6.63;;
9288;SDS011;4683;50.864;12.086;2022-07-23T17:23:00;6.93;;;6.27;;
9288;SDS011;4683;50.864;12.086;2022-07-23T17:29:45;7.07;;;6.40;;
9288;SDS011;4683;50.864;12.086;2022-07-23T17:33:33;6.97;;;6.30;;
9288;SDS011;4683;50.864;12.086;2022-07-23T18:11:51;5.00;;;4.60;;
9288;SDS011;4683;50.864;12.086;2022-07-23T18:14:20;5.43;;;4.60;;
9288;SDS011;4683;50.864;12.086;2022-07-23T18:16:50;4.60;;;4.20;;
9288;SDS011;4683;50.864;12.086;2022-07-23T18:19:18;4.67;;;4.27;;
9288;SDS011;4683;50.864;12.086;2022-07-23T18:21:47;4.90;;;4.50;;
9288;SDS011;4683;50.864;12.086;2022-07-23T18:24:18;4.70;;;4.30;;
9288;SDS011;4683;50.864;12.086;2022-07-23T18:43:30;4.00;;;3.70;;
9288;SDS011;4683;50.864;12.086;2022-07-23T18:47:32;4.17;;;3.87;;
9288;SDS011;4683;50.864;12.086;2022-07-23T18:50:37;4.10;;;3.80;;
9288;SDS011;4683;50.864;12.086;2022-07-23T18:53:22;5.40;;;3.80;;
9288;SDS011;4683;50.864;12.086;2022-07-23T20:44:32;15.70;;;14.17;;
9288;SDS011;4683;50.864;12.086;2022-07-23T20:47:00;13.63;;;12.53;;
9288;SDS011;4683;50.864;12.086;2022-07-23T20:49:29;13.83;;;12.70;;
9288;SDS011;4683;50.864;12.086;2022-07-23T20:51:57;14.07;;;13.00;;
9288;SDS011;4683;50.864;12.086;2022-07-23T20:54:25;17.10;;;15.43;;
9288;SDS011;4683;50.864;12.086;2022-07-23T20:56:53;9.70;;;8.77;;
9288;SDS011;4683;50.864;12.086;2022-07-23T21:31:40;9.30;;;8.50;;
9288;SDS011;4683;50.864;12.086;2022-07-23T21:47:26;9.73;;;8.80;;
9288;SDS011;4683;50.864;12.086;2022-07-23T22:07:42;10.00;;;9.00;;
9288;SDS011;4683;50.864;12.086;2022-07-23T23:37:03;7.00;;;5.30;;
9288;SDS011;4683;50.864;12.086;2022-07-23T23:39:32;6.20;;;5.70;;
9288;SDS011;4683;50.864;12.086;2022-07-23T23:42:01;7.20;;;6.50;;
